Time;durP1;ratioP1;P1;durP2;ratioP2;P2;SDS_P1;SDS_P2;PMS_P1;PMS_P2;Temp;Humidity;BMP_temperature;BMP_pressure;BME280_temperature;BME280_humidity;BME280_pressure;Samples;Min_cycle;Max_cycle;Signal;HPM_P1;HPM_P2
2022/05/08 00:01:01;;;;;;;10.05;5.00;;;;;;;12.10;67.12;101391.38;2026153;29;20297;-68
2022/05/08 00:02:07;;;;;;;10.27;5.13;;;;;;;12.10;67.35;101385.97;2032640;29;20300;-67
2022/05/08 00:03:12;;;;;;;8.60;4.55;;;;;;;12.11;67.40;101386.81;2040086;29;20311;-67
2022/05/08 00:04:17;;;;;;;9.90;4.55;;;;;;;12.02;67.23;101381.94;2039523;29;20300;-67
2022/05/08 00:05:21;;;;;;;8.35;5.30;;;;;;;12.04;67.38;101392.44;2036542;29;20051;-67
2022/05/08 00:06:26;;;;;;;9.32;5.05;;;;;;;12.07;67.36;101391.91;2039721;29;20347;-67
2022/05/08 00:07:28;;;;;;;8.45;5.03;;;;;;;12.06;67.52;101393.00;2040909;29;20644;-67
2022/05/08 00:08:34;;;;;;;9.57;4.65;;;;;;;12.04;67.41;101389.75;2039836;29;20039;-67
2022/05/08 00:09:44;;;;;;;9.40;5.10;;;;;;;12.02;67.28;101391.91;2039879;29;20332;-68
2022/05/08 00:10:47;;;;;;;11.25;5.32;;;;;;;12.01;67.74;101387.56;2032280;29;20295;-67
2022/05/08 00:11:54;;;;;;;7.20;5.05;;;;;;;12.03;67.62;101394.31;2031989;29;20292;-66
2022/05/08 00:12:59;;;;;;;8.00;4.95;;;;;;;12.08;67.80;101385.47;2025515;29;20352;-65
2022/05/08 00:14:08;;;;;;;8.55;5.05;;;;;;;12.12;67.67;101389.22;2032950;29;20307;-68
2022/05/08 00:15:12;;;;;;;8.90;5.10;;;;;;;12.14;67.39;101380.88;2038798;29;20303;-68
2022/05/08 00:16:14;;;;;;;10.05;5.20;;;;;;;12.11;67.56;101387.63;2032396;29;20300;-66
2022/05/08 00:17:18;;;;;;;11.98;5.75;;;;;;;12.06;67.53;101384.91;2024369;29;20064;-66
2022/05/08 00:18:23;;;;;;;11.13;5.80;;;;;;;12.04;67.83;101393.28;2024564;29;20300;-66
2022/05/08 00:19:27;;;;;;;12.02;6.32;;;;;;;12.04;67.87;101387.03;2025333;29;20296;-66
2022/05/08 00:20:33;;;;;;;7.45;4.97;;;;;;;12.00;67.66;101380.59;2031382;29;20468;-67
2022/05/08 00:21:40;;;;;;;10.18;5.80;;;;;;;11.99;67.99;101387.06;2031671;29;20296;-67
2022/05/08 00:22:43;;;;;;;10.85;5.22;;;;;;;11.93;68.06;101390.81;2031898;29;20302;-67
2022/05/08 00:23:49;;;;;;;9.50;5.20;;;;;;;11.93;68.30;101388.94;2030184;29;20293;-67
2022/05/08 00:24:54;;;;;;;10.88;5.50;;;;;;;11.96;67.87;101380.31;2025033;29;20307;-67
2022/05/08 00:25:58;;;;;;;10.65;5.45;;;;;;;11.94;68.17;101392.44;2032879;29;20335;-67
2022/05/08 00:27:04;;;;;;;7.72;5.18;;;;;;;11.93;68.28;101386.22;2039272;29;20059;-67
2022/05/08 00:28:07;;;;;;;10.35;5.40;;;;;;;11.94;68.17;101381.66;2039159;29;20338;-67
2022/05/08 00:29:11;;;;;;;9.90;5.53;;;;;;;12.00;68.37;101385.97;2039825;29;20292;-67
2022/05/08 00:30:16;;;;;;;9.18;5.05;;;;;;;12.02;68.38;101381.13;2033285;29;20300;-68
2022/05/08 00:31:20;;;;;;;9.18;5.40;;;;;;;12.02;67.81;101389.22;2032300;29;20408;-67
2022/05/08 00:32:25;;;;;;;10.20;5.40;;;;;;;12.04;67.92;101395.13;2039834;29;20048;-67
2022/05/08 00:33:33;;;;;;;11.63;5.75;;;;;;;11.99;67.91;101387.06;2039755;29;20799;-66
2022/05/08 00:34:37;;;;;;;10.38;5.60;;;;;;;12.00;67.81;101380.59;2039549;29;20965;-67
2022/05/08 00:35:44;;;;;;;7.95;4.93;;;;;;;12.02;68.18;101402.69;2032172;29;20304;-67
2022/05/08 00:36:49;;;;;;;11.45;5.50;;;;;;;12.02;67.93;101391.91;2026189;29;20436;-67
2022/05/08 00:37:54;;;;;;;7.80;5.25;;;;;;;12.02;68.02;101395.41;2039704;29;20292;-67
2022/05/08 00:38:57;;;;;;;11.52;5.60;;;;;;;12.06;67.91;101385.72;2040804;29;20291;-67
2022/05/08 00:40:01;;;;;;;10.60;5.43;;;;;;;11.99;68.08;101385.16;2040382;29;20054;-67
2022/05/08 00:41:04;;;;;;;9.05;5.28;;;;;;;11.96;68.20;101388.41;2039398;29;20058;-67
2022/05/08 00:42:12;;;;;;;9.77;5.22;;;;;;;11.90;67.93;101389.47;2031924;29;20052;-67
2022/05/08 00:43:33;;;;;;;9.43;5.22;;;;;;;11.86;68.10;101377.59;2040022;29;20072;-67
2022/05/08 00:44:36;;;;;;;9.10;5.20;;;;;;;11.85;68.40;101385.94;2040101;29;20663;-67
2022/05/08 00:45:39;;;;;;;9.82;4.95;;;;;;;11.90;68.55;101388.66;2039697;29;20288;-67
2022/05/08 00:46:44;;;;;;;8.50;4.82;;;;;;;11.86;68.73;101384.88;2039969;29;20302;-67
2022/05/08 00:47:46;;;;;;;9.32;5.32;;;;;;;11.79;68.67;101385.91;2039877;29;20299;-67
2022/05/08 00:48:48;;;;;;;9.20;5.28;;;;;;;11.76;68.43;101383.75;2032037;29;20780;-67
2022/05/08 00:49:50;;;;;;;9.60;5.13;;;;;;;11.79;68.70;101382.38;2023926;29;20500;-67
2022/05/08 00:50:53;;;;;;;8.77;5.43;;;;;;;11.81;68.97;101382.94;2032625;29;20039;-66
2022/05/08 00:51:58;;;;;;;10.88;5.80;;;;;;;11.84;68.66;101377.03;2039076;29;20322;-67
2022/05/08 00:53:04;;;;;;;11.90;5.65;;;;;;;11.85;68.81;101377.84;2040278;29;20284;-67
2022/05/08 00:54:08;;;;;;;11.55;6.07;;;;;;;11.81;68.67;101383.75;2040395;29;20287;-66
2022/05/08 00:55:13;;;;;;;10.50;5.47;;;;;;;11.76;68.58;101381.06;2040207;29;20283;-66
2022/05/08 00:56:16;;;;;;;9.38;5.40;;;;;;;11.74;69.04;101379.69;2039530;29;20300;-67
2022/05/08 00:57:22;;;;;;;10.98;5.70;;;;;;;11.72;68.86;101385.34;2039561;29;20526;-66
2022/05/08 00:58:27;;;;;;;8.38;5.25;;;;;;;11.70;69.06;101382.13;2039389;29;20291;-66
2022/05/08 00:59:29;;;;;;;9.98;5.68;;;;;;;11.73;69.20;101384.28;2032159;29;20288;-67
2022/05/08 01:00:33;;;;;;;9.30;5.30;;;;;;;11.78;68.63;101384.28;2032422;29;20288;-67
2022/05/08 01:01:38;;;;;;;9.77;5.40;;;;;;;11.79;69.14;101391.31;2039349;29;20284;-66
2022/05/08 01:02:41;;;;;;;9.55;5.50;;;;;;;11.73;68.88;101380.78;2047311;29;20290;-66
2022/05/08 01:03:44;;;;;;;8.40;5.47;;;;;;;11.70;69.28;101382.13;2047693;29;20293;-66
2022/05/08 01:04:47;;;;;;;9.00;5.57;;;;;;;11.72;69.26;101384.53;2037621;29;20791;-67
2022/05/08 01:05:55;;;;;;;11.95;5.60;;;;;;;11.73;69.40;101392.38;2039655;29;20295;-67
2022/05/08 01:07:00;;;;;;;9.75;5.30;;;;;;;11.72;69.01;101396.13;2040685;29;20295;-67
2022/05/08 01:08:09;;;;;;;11.68;5.80;;;;;;;11.68;69.48;101384.25;2039609;29;20287;-66
2022/05/08 01:09:11;;;;;;;10.68;5.70;;;;;;;11.67;69.39;101393.44;2025373;29;20374;-67
2022/05/08 01:10:15;;;;;;;10.20;5.57;;;;;;;11.63;69.54;101391.50;2024144;29;20281;-67
2022/05/08 01:11:21;;;;;;;12.18;5.30;;;;;;;11.60;69.49;101387.47;2039468;29;20296;-67
2022/05/08 01:12:27;;;;;;;9.30;5.40;;;;;;;11.56;69.64;101391.75;2039960;29;20314;-66
2022/05/08 01:13:29;;;;;;;10.20;5.38;;;;;;;11.60;69.47;101398.22;2040200;29;20275;-66
2022/05/08 01:14:33;;;;;;;12.60;5.88;;;;;;;11.59;69.56;101389.34;2032064;29;20284;-66
2022/05/08 01:15:55;;;;;;;9.02;5.22;;;;;;;11.67;69.41;101395.31;2032580;29;20296;-67
2022/05/08 01:16:59;;;;;;;9.80;4.95;;;;;;;11.69;69.28;101395.84;2032693;29;20284;-66
2022/05/08 01:18:02;;;;;;;8.02;4.78;;;;;;;11.69;69.00;101398.53;2032640;29;20348;-66
2022/05/08 01:19:06;;;;;;;10.15;5.13;;;;;;;11.73;68.72;101391.56;2039519;29;20707;-67
2022/05/08 01:20:15;;;;;;;10.57;5.05;;;;;;;11.74;68.79;101393.97;2023908;29;20312;-66
2022/05/08 01:21:22;;;;;;;7.93;5.10;;;;;;;11.70;68.97;101394.78;2017728;29;20282;-67
2022/05/08 01:22:29;;;;;;;11.88;5.28;;;;;;;11.71;69.22;101394.50;2034339;29;20787;-67
2022/05/08 01:23:31;;;;;;;11.05;5.88;;;;;;;11.68;68.89;101399.63;2045391;28;20287;-66
2022/05/08 01:24:34;;;;;;;7.03;5.05;;;;;;;11.65;68.80;101400.94;2039162;29;20054;-67
2022/05/08 01:25:52;;;;;;;9.50;5.25;;;;;;;11.58;68.93;101403.09;2039264;29;20284;-67
2022/05/08 01:26:57;;;;;;;8.43;5.60;;;;;;;11.60;69.25;101400.94;2039892;29;20299;-67
2022/05/08 01:28:02;;;;;;;9.93;5.35;;;;;;;11.63;68.84;101400.41;2031911;29;20288;-67
2022/05/08 01:29:04;;;;;;;10.95;5.28;;;;;;;11.65;69.14;101400.94;2039950;29;20291;-66
2022/05/08 01:30:07;;;;;;;7.28;4.93;;;;;;;11.67;68.95;101403.41;2023880;29;20300;-66
2022/05/08 01:31:10;;;;;;;10.07;5.60;;;;;;;11.66;68.70;101402.56;2017632;29;20312;-67
2022/05/08 01:32:12;;;;;;;10.90;5.60;;;;;;;11.69;68.76;101402.03;2031596;29;20139;-66
2022/05/08 01:33:15;;;;;;;7.78;5.32;;;;;;;11.70;68.24;101403.66;2032351;29;20704;-66
2022/05/08 01:34:18;;;;;;;9.73;5.15;;;;;;;11.60;68.76;101404.47;2031892;29;20728;-66
2022/05/08 01:35:27;;;;;;;11.60;5.20;;;;;;;11.58;68.90;101401.22;2032830;29;20288;-67
2022/05/08 01:36:30;;;;;;;11.77;5.43;;;;;;;11.62;69.03;101400.69;2032652;29;20303;-67
2022/05/08 01:37:38;;;;;;;9.68;5.15;;;;;;;11.65;68.82;101406.34;2039889;29;20933;-67
2022/05/08 01:38:46;;;;;;;7.30;4.95;;;;;;;11.64;68.67;101404.72;2039512;29;20300;-67
2022/05/08 01:39:51;;;;;;;8.88;5.28;;;;;;;11.52;68.27;101401.47;2040141;29;20338;-67
2022/05/08 01:41:03;;;;;;;9.77;5.20;;;;;;;11.48;68.77;101400.38;2046173;29;20310;-66
2022/05/08 01:42:09;;;;;;;10.63;5.43;;;;;;;11.45;68.61;101406.28;2040203;29;20280;-66
2022/05/08 01:43:15;;;;;;;10.13;5.45;;;;;;;11.45;69.07;101404.41;2023992;29;20296;-66
2022/05/08 01:44:17;;;;;;;10.27;5.05;;;;;;;11.50;68.97;101396.31;2025643;29;20036;-68
2022/05/08 01:45:26;;;;;;;10.50;5.20;;;;;;;11.55;68.51;101406.31;2046759;29;20294;-68
2022/05/08 01:46:34;;;;;;;11.05;5.03;;;;;;;11.56;68.48;101400.66;2032392;29;20300;-68
2022/05/08 01:49:03;;;;;;;8.48;4.60;;;;;;;11.53;68.27;101411.16;2023723;29;20297;-67
2022/05/08 01:50:09;;;;;;;8.98;4.82;;;;;;;11.54;68.25;101399.31;2028491;29;20907;-67
2022/05/08 01:51:12;;;;;;;9.63;4.88;;;;;;;11.55;67.60;101406.31;2032200;29;20280;-67
2022/05/08 01:52:18;;;;;;;9.40;4.80;;;;;;;11.56;68.02;101397.16;2032370;29;21005;-67
2022/05/08 01:53:27;;;;;;;9.95;4.80;;;;;;;11.52;68.26;101401.47;2031863;29;20299;-67
2022/05/08 01:54:29;;;;;;;8.85;4.70;;;;;;;11.54;67.63;101404.72;2031937;29;20284;-67
2022/05/08 01:55:33;;;;;;;6.45;4.25;;;;;;;11.53;67.79;101403.88;2033079;29;20280;-67
2022/05/08 01:56:37;;;;;;;11.65;4.90;;;;;;;11.39;68.03;101402.75;2038995;29;20303;-68
2022/05/08 01:57:40;;;;;;;12.98;5.10;;;;;;;11.41;67.51;101400.59;2040322;29;20346;-68
2022/05/08 01:58:48;;;;;;;8.63;4.38;;;;;;;11.45;67.56;101407.09;2039898;29;20288;-69
2022/05/08 01:59:50;;;;;;;9.73;4.45;;;;;;;11.49;67.50;101407.38;2031831;29;20787;-68
2022/05/08 02:00:56;;;;;;;9.70;4.63;;;;;;;11.39;67.85;101410.03;2030765;29;20509;-69
2022/05/08 02:02:01;;;;;;;8.85;4.93;;;;;;;11.43;67.58;101403.84;2031809;29;20292;-68
2022/05/08 02:03:09;;;;;;;12.30;4.38;;;;;;;11.46;67.85;101406.00;2024359;29;20653;-68
2022/05/08 02:04:15;;;;;;;7.88;4.15;;;;;;;11.45;67.45;101407.09;2027065;29;20288;-68
2022/05/08 02:05:22;;;;;;;8.45;4.47;;;;;;;11.44;67.56;101404.63;2039586;29;20302;-68
2022/05/08 02:06:24;;;;;;;11.55;4.72;;;;;;;11.35;67.46;101402.47;2039766;29;20798;-68
2022/05/08 02:07:28;;;;;;;10.32;4.28;;;;;;;11.34;67.19;101405.41;2039099;29;20779;-68
2022/05/08 02:08:30;;;;;;;9.55;4.40;;;;;;;11.35;67.10;101407.06;2047132;29;20287;-68
2022/05/08 02:09:34;;;;;;;8.32;4.10;;;;;;;11.39;67.03;101407.34;2039575;29;20299;-68
2022/05/08 02:10:41;;;;;;;12.02;4.55;;;;;;;11.41;67.06;101410.56;2039880;29;20708;-68
2022/05/08 02:11:46;;;;;;;9.57;4.53;;;;;;;11.39;66.64;101405.44;2040134;29;20294;-68
2022/05/08 02:12:50;;;;;;;9.57;4.32;;;;;;;11.35;66.63;101405.16;2023983;29;20332;-67
2022/05/08 02:13:58;;;;;;;9.88;5.45;;;;;;;11.29;66.88;101403.53;2016770;29;20344;-68
2022/05/08 02:15:05;;;;;;;10.40;4.88;;;;;;;11.24;67.26;101410.75;2031768;29;20284;-68
2022/05/08 02:16:13;;;;;;;8.10;4.18;;;;;;;11.25;67.51;101407.78;2031617;29;20280;-68
2022/05/08 02:17:18;;;;;;;10.05;3.95;;;;;;;11.20;67.19;101402.41;2031494;29;20386;-67
2022/05/08 02:18:22;;;;;;;11.13;4.57;;;;;;;11.23;67.31;101404.56;2031730;29;20284;-68
2022/05/08 02:19:28;;;;;;;9.57;4.50;;;;;;;11.19;67.02;101402.66;2039289;29;20279;-68
2022/05/08 02:20:39;;;;;;;10.60;4.40;;;;;;;11.18;67.52;101401.03;2031728;29;20847;-68
2022/05/08 02:21:44;;;;;;;8.63;4.57;;;;;;;11.19;67.12;101402.66;2038363;29;20319;-68
2022/05/08 02:22:51;;;;;;;6.90;4.13;;;;;;;11.14;67.26;101401.56;2045671;29;20287;-68
2022/05/08 02:23:54;;;;;;;8.45;4.50;;;;;;;11.16;67.63;101408.56;2043346;28;20293;-68
2022/05/08 02:25:02;;;;;;;12.88;4.35;;;;;;;11.16;67.43;101405.84;2030721;29;20338;-68
2022/05/08 02:26:05;;;;;;;11.55;4.15;;;;;;;11.16;67.54;101398.63;2031323;29;20311;-68
2022/05/08 02:27:08;;;;;;;8.30;4.35;;;;;;;11.20;67.56;101398.91;2038372;29;20296;-68
2022/05/08 02:28:11;;;;;;;8.48;4.40;;;;;;;11.22;67.13;101402.13;2038400;29;20298;-68
2022/05/08 02:29:14;;;;;;;9.23;4.05;;;;;;;11.23;67.63;101398.38;2030675;29;20292;-68
2022/05/08 02:30:23;;;;;;;12.52;4.75;;;;;;;11.23;67.36;101393.00;2023344;29;21048;-69
2022/05/08 02:31:29;;;;;;;11.23;4.57;;;;;;;11.12;67.45;101401.00;2018055;29;20285;-67
2022/05/08 02:32:31;;;;;;;7.22;4.20;;;;;;;11.14;67.44;101395.38;2015700;29;20294;-68
2022/05/08 02:33:34;;;;;;;9.15;4.78;;;;;;;11.20;67.72;101399.72;2023380;29;20670;-68
2022/05/08 02:34:39;;;;;;;10.90;4.50;;;;;;;11.23;67.14;101393.81;2038573;29;20311;-68
2022/05/08 02:35:41;;;;;;;9.93;4.88;;;;;;;11.25;66.88;101396.22;2039871;29;20299;-67
2022/05/08 02:36:45;;;;;;;11.02;4.43;;;;;;;11.28;67.10;101399.19;2032338;29;20660;-68
2022/05/08 02:37:53;;;;;;;17.13;4.45;;;;;;;11.29;67.12;101394.63;2037493;29;20291;-67
2022/05/08 02:39:01;;;;;;;14.75;4.55;;;;;;;11.33;66.64;101399.22;2031855;29;20300;-68
2022/05/08 02:40:06;;;;;;;14.48;4.85;;;;;;;11.38;66.95;101398.44;2032639;29;20288;-68
2022/05/08 02:41:15;;;;;;;13.52;4.40;;;;;;;11.42;66.74;101394.16;2032804;29;20957;-68
2022/05/08 02:42:18;;;;;;;9.60;4.82;;;;;;;11.44;66.28;101396.56;2032246;29;20594;-68
2022/05/08 02:43:21;;;;;;;9.63;4.20;;;;;;;11.42;66.06;101399.53;2040194;29;20295;-68
2022/05/08 02:44:23;;;;;;;8.80;4.03;;;;;;;11.44;66.38;101397.38;2039827;29;20288;-67
2022/05/08 02:45:27;;;;;;;9.25;4.25;;;;;;;11.41;65.92;101389.00;2039804;29;20287;-67
2022/05/08 02:46:32;;;;;;;12.32;4.00;;;;;;;11.37;66.18;101396.81;2040430;29;20298;-67
2022/05/08 02:47:39;;;;;;;12.18;3.95;;;;;;;11.39;65.87;101391.97;2038967;29;20298;-68
2022/05/08 02:48:43;;;;;;;10.45;4.60;;;;;;;11.38;66.21;101393.06;2040104;29;20275;-67
2022/05/08 02:49:54;;;;;;;9.18;4.00;;;;;;;11.36;66.14;101398.69;2038992;29;20303;-67
2022/05/08 02:51:04;;;;;;;9.23;4.03;;;;;;;11.32;65.62;101392.22;2039592;29;20291;-65
2022/05/08 02:52:07;;;;;;;;;;;;;;;11.31;65.59;101393.28;2040654;29;20291;-66
2022/05/08 02:53:09;;;;;;;9.30;4.30;;;;;;;11.30;65.88;101393.56;2039052;29;19922;-66
2022/05/08 02:54:15;;;;;;;8.63;4.03;;;;;;;11.25;66.05;101383.56;2024020;29;20337;-66
2022/05/08 02:58:33;;;;;;;9.07;3.75;;;;;;;11.17;66.11;101394.84;2023146;29;20285;-67
2022/05/08 02:59:40;;;;;;;12.02;4.47;;;;;;;11.10;66.17;101391.59;2023255;29;20320;-66
2022/05/08 03:00:47;;;;;;;8.52;4.03;;;;;;;11.01;66.50;101395.84;2023879;29;20284;-67
2022/05/08 03:01:51;;;;;;;10.48;4.22;;;;;;;10.95;66.38;101391.50;2030872;29;20056;-68
2022/05/08 03:02:53;;;;;;;8.50;3.65;;;;;;;10.95;66.54;101391.50;2032126;29;20295;-66
2022/05/08 03:03:56;;;;;;;10.25;4.15;;;;;;;10.99;66.24;101385.31;2031794;29;20293;-66
2022/05/08 03:04:58;;;;;;;10.48;3.90;;;;;;;11.04;66.71;101398.00;2032114;29;20315;-66
2022/05/08 03:06:06;;;;;;;11.65;3.78;;;;;;;11.06;66.75;101395.84;2032489;29;20307;-65
2022/05/08 03:07:14;;;;;;;10.18;3.70;;;;;;;11.07;66.50;101394.81;2031759;29;20292;-66
2022/05/08 03:08:17;;;;;;;11.07;3.92;;;;;;;11.09;65.87;101400.72;2032015;29;20319;-66
2022/05/08 03:09:20;;;;;;;10.07;3.90;;;;;;;11.09;66.05;101392.63;2047780;29;20275;-66
2022/05/08 03:10:23;;;;;;;6.53;3.35;;;;;;;11.08;66.05;101391.84;2046582;29;21162;-66
2022/05/08 03:11:26;;;;;;;9.20;3.80;;;;;;;11.11;66.48;101394.00;2039779;29;20275;-66
2022/05/08 03:12:28;;;;;;;11.70;4.10;;;;;;;11.10;66.06;101400.47;2038727;29;20287;-66
2022/05/08 03:13:39;;;;;;;9.75;3.70;;;;;;;11.13;65.89;101399.94;2040497;29;20291;-66
2022/05/08 03:14:43;;;;;;;13.90;3.47;;;;;;;11.12;65.40;101402.88;2039695;29;20291;-66
2022/05/08 03:15:47;;;;;;;8.07;4.03;;;;;;;11.11;65.52;101393.19;2039530;29;20283;-67
2022/05/08 03:16:51;;;;;;;9.23;3.65;;;;;;;11.08;65.34;101396.41;2032238;29;20280;-68
2022/05/08 03:17:56;;;;;;;8.60;3.70;;;;;;;11.09;65.72;101403.41;2030534;29;20765;-67
2022/05/08 03:18:58;;;;;;;7.93;3.72;;;;;;;11.08;65.77;101399.91;2031707;29;20296;-67
2022/05/08 03:20:04;;;;;;;9.45;3.63;;;;;;;11.08;65.17;101399.91;2031780;29;20682;-67
2022/05/08 03:21:11;;;;;;;9.60;3.47;;;;;;;11.09;65.60;101398.03;2017007;29;20361;-67
2022/05/08 03:22:16;;;;;;;9.32;3.60;;;;;;;11.05;65.80;101403.13;2027846;29;20284;-68
2022/05/08 03:23:20;;;;;;;10.00;3.53;;;;;;;11.09;65.55;101403.41;2039504;29;20042;-67
2022/05/08 03:24:29;;;;;;;7.35;3.38;;;;;;;11.10;65.16;101400.47;2031072;29;20304;-67
2022/05/08 03:25:34;;;;;;;10.27;3.53;;;;;;;11.17;65.37;101404.81;2016941;29;20297;-67
2022/05/08 03:26:38;;;;;;;11.30;4.05;;;;;;;11.22;65.17;101402.13;2027250;29;20285;-68
2022/05/08 03:27:42;;;;;;;9.68;3.17;;;;;;;11.31;64.97;101406.75;2031571;29;20311;-68
2022/05/08 03:28:48;;;;;;;10.25;3.72;;;;;;;11.39;64.78;101407.34;2031986;29;20783;-68
2022/05/08 03:29:53;;;;;;;11.07;3.50;;;;;;;11.45;64.18;101406.28;2030978;29;20605;-68
2022/05/08 03:31:01;;;;;;;8.13;3.42;;;;;;;11.48;64.06;101400.38;2031887;29;20307;-68
2022/05/08 03:32:07;;;;;;;7.35;3.05;;;;;;;11.43;63.67;101409.22;2031413;29;21055;-68
2022/05/08 03:33:13;;;;;;;11.63;3.45;;;;;;;11.45;63.81;101415.16;2031354;29;20280;-68
2022/05/08 03:34:16;;;;;;;7.50;3.20;;;;;;;11.43;63.96;101409.22;2039383;29;21031;-67
2022/05/08 03:35:21;;;;;;;10.75;3.13;;;;;;;11.45;63.67;101411.66;2029454;29;20292;-68
2022/05/08 03:36:23;;;;;;;13.93;3.60;;;;;;;11.48;63.61;101411.16;2024784;29;20776;-68
2022/05/08 03:37:25;;;;;;;10.90;3.13;;;;;;;11.45;63.44;101409.78;2016204;29;20317;-68
2022/05/08 03:38:30;;;;;;;13.35;2.92;;;;;;;11.43;63.52;101408.41;2023600;29;20293;-68
2022/05/08 03:39:34;;;;;;;7.63;2.83;;;;;;;11.42;62.93;101409.50;2031973;29;20331;-68
2022/05/08 03:40:40;;;;;;;8.85;3.10;;;;;;;11.43;63.36;101411.13;2038296;29;20770;-68
2022/05/08 03:41:44;;;;;;;9.80;3.13;;;;;;;11.41;63.38;101407.88;2039203;29;20303;-68
2022/05/08 03:42:50;;;;;;;12.43;3.22;;;;;;;11.34;63.25;101411.59;2027448;29;20308;-68
2022/05/08 03:43:53;;;;;;;7.68;2.78;;;;;;;11.43;63.67;101413.81;2039311;29;20295;-68
2022/05/08 03:44:57;;;;;;;7.63;2.55;;;;;;;11.50;63.68;101414.38;2039404;29;20891;-69
2022/05/08 03:46:00;;;;;;;7.38;2.70;;;;;;;11.55;62.95;101412.50;2038974;29;20294;-67
2022/05/08 03:47:05;;;;;;;10.13;3.50;;;;;;;11.55;62.66;101415.19;2038981;29;21294;-68
2022/05/08 03:48:13;;;;;;;12.25;2.95;;;;;;;11.53;62.34;101419.22;2024303;29;20308;-68
2022/05/08 03:49:18;;;;;;;9.35;3.17;;;;;;;11.56;62.90;101413.31;2032186;29;20303;-68
2022/05/08 03:50:23;;;;;;;11.63;3.33;;;;;;;11.66;62.80;101416.03;2038800;29;21256;-69
2022/05/08 03:51:30;;;;;;;11.85;3.38;;;;;;;11.76;62.61;101416.09;2039405;29;20275;-68
2022/05/08 03:52:32;;;;;;;8.82;3.05;;;;;;;11.82;62.31;101417.72;2038657;29;20291;-68
2022/05/08 03:53:39;;;;;;;7.75;3.25;;;;;;;11.91;61.68;101414.53;2021262;29;20780;-68
2022/05/08 03:54:42;;;;;;;11.15;3.35;;;;;;;11.97;61.59;101408.06;2017660;29;20297;-68
2022/05/08 03:55:45;;;;;;;10.63;2.65;;;;;;;11.97;61.15;101419.66;2038904;29;20283;-68
2022/05/08 03:56:54;;;;;;;8.50;2.80;;;;;;;12.01;61.00;101419.94;2031077;29;20296;-68
2022/05/08 03:57:57;;;;;;;10.57;2.90;;;;;;;12.07;61.24;101408.06;2016979;29;20302;-68
2022/05/08 03:59:00;;;;;;;8.93;3.22;;;;;;;12.15;60.72;101409.44;2024513;29;20285;-68
2022/05/08 04:00:07;;;;;;;10.07;3.03;;;;;;;12.27;60.76;101408.13;2039134;29;20291;-68
2022/05/08 04:01:13;;;;;;;9.88;3.38;;;;;;;12.35;60.16;101411.34;2032742;29;20292;-67
2022/05/08 04:02:18;;;;;;;7.13;3.05;;;;;;;12.43;60.16;101417.00;2024260;29;20055;-67
2022/05/08 04:03:22;;;;;;;10.52;3.03;;;;;;;12.43;60.06;101410.81;2017354;29;20301;-68
2022/05/08 04:04:28;;;;;;;8.13;3.53;;;;;;;12.43;59.75;101417.00;2034463;29;20459;-68
2022/05/08 04:05:33;;;;;;;12.38;3.25;;;;;;;12.47;59.58;101414.59;2040002;29;20283;-68
2022/05/08 04:06:40;;;;;;;8.20;2.60;;;;;;;12.52;59.59;101411.91;2031156;29;20637;-68
2022/05/08 04:07:44;;;;;;;7.43;2.88;;;;;;;12.59;59.38;101412.44;2031672;29;20304;-68
2022/05/08 04:08:48;;;;;;;14.50;3.20;;;;;;;12.67;59.27;101416.44;2047032;29;20279;-67
2022/05/08 04:09:51;;;;;;;12.20;3.30;;;;;;;12.71;58.79;101415.66;2039072;29;20673;-68
2022/05/08 04:10:57;;;;;;;6.25;2.90;;;;;;;12.74;58.72;101417.81;2023715;29;20297;-68
2022/05/08 04:11:59;;;;;;;9.25;2.90;;;;;;;12.71;58.68;101417.56;2032172;29;20295;-68
2022/05/08 04:13:04;;;;;;;9.80;3.08;;;;;;;12.78;58.78;101415.38;2030861;29;20296;-68
2022/05/08 04:14:09;;;;;;;9.50;3.00;;;;;;;12.85;58.16;101425.88;2031695;29;20063;-67
2022/05/08 04:16:32;;;;;;;7.43;2.47;;;;;;;12.95;58.14;101425.88;2038663;29;20672;-68
2022/05/08 04:17:37;;;;;;;7.63;2.97;;;;;;;13.03;58.05;101428.00;2031034;29;20063;-68
2022/05/08 04:18:40;;;;;;;9.40;2.90;;;;;;;13.15;57.81;101425.03;2038822;29;20055;-68
2022/05/08 04:19:43;;;;;;;10.73;2.85;;;;;;;13.25;57.69;101422.31;2039438;29;20055;-68
2022/05/08 04:20:44;;;;;;;11.65;2.95;;;;;;;13.38;57.48;101426.31;2031179;29;20059;-66
2022/05/08 04:21:47;;;;;;;9.65;2.80;;;;;;;13.50;56.95;101428.72;2031155;29;20067;-67
2022/05/08 04:24:19;;;;;;;9.77;2.78;;;;;;;13.72;56.09;101431.84;2031755;29;20067;-66
2022/05/08 04:25:27;;;;;;;7.63;3.35;;;;;;;13.80;56.05;101423.16;2031019;29;20051;-66
2022/05/08 04:26:32;;;;;;;7.20;2.30;;;;;;;13.94;55.91;101428.75;2024026;29;20036;-67
2022/05/08 04:27:39;;;;;;;10.10;2.85;;;;;;;13.99;55.30;101425.22;2029980;29;20044;-67
2022/05/08 04:28:41;;;;;;;9.27;2.75;;;;;;;13.91;55.14;101424.72;2037947;29;20085;-67
2022/05/08 04:29:49;;;;;;;9.57;2.70;;;;;;;13.90;55.02;101427.69;2031994;29;20056;-66
2022/05/08 04:30:51;;;;;;;9.32;2.80;;;;;;;13.91;54.88;101432.81;2030976;29;20063;-67
2022/05/08 04:31:53;;;;;;;8.35;3.00;;;;;;;14.03;55.17;101432.50;2028036;29;20040;-66
2022/05/08 04:32:55;;;;;;;8.70;3.10;;;;;;;14.13;54.61;101435.13;2038840;29;20432;-66
2022/05/08 04:33:59;;;;;;;9.48;3.13;;;;;;;14.27;54.97;101434.50;2038391;29;20158;-65
2022/05/08 04:35:00;;;;;;;9.15;3.15;;;;;;;14.38;54.54;101430.63;2038930;29;20043;-66
2022/05/08 04:36:06;;;;;;;6.03;2.72;;;;;;;14.50;54.10;101431.06;2030494;29;20063;-66
2022/05/08 04:37:12;;;;;;;7.95;2.85;;;;;;;14.56;53.44;101435.38;2031898;29;20060;-66
2022/05/08 04:38:15;;;;;;;9.60;3.03;;;;;;;14.69;53.71;101438.50;2038786;29;20063;-66
2022/05/08 04:39:22;;;;;;;13.20;3.20;;;;;;;14.72;52.72;101437.94;2039711;29;20044;-65
2022/05/08 04:40:28;;;;;;;9.40;3.30;;;;;;;14.80;52.77;101437.31;2039151;29;20056;-66
2022/05/08 04:41:30;;;;;;;15.93;3.42;;;;;;;15.04;52.68;101446.28;2039554;29;20048;-66
2022/05/08 04:42:33;;;;;;;8.27;3.05;;;;;;;15.28;52.84;101443.59;2039157;29;20074;-65
2022/05/08 04:43:38;;;;;;;11.77;3.08;;;;;;;15.52;51.97;101440.88;2039760;29;20099;-66
2022/05/08 04:44:39;;;;;;;8.38;2.72;;;;;;;15.69;51.41;101440.41;2039432;29;20031;-66
2022/05/08 04:45:43;;;;;;;8.88;2.97;;;;;;;15.88;51.25;101445.84;2038698;29;20523;-66
2022/05/08 04:46:45;;;;;;;8.50;2.92;;;;;;;16.05;50.72;101441.84;2030721;29;20424;-65
2022/05/08 04:47:48;;;;;;;8.60;3.05;;;;;;;16.14;50.16;101440.06;2031089;29;20087;-66
2022/05/08 04:48:53;;;;;;;8.60;3.50;;;;;;;16.28;49.64;101440.13;2038417;29;20044;-66
2022/05/08 04:49:58;;;;;;;8.45;3.20;;;;;;;16.38;49.49;101434.53;2035665;29;20047;-65
2022/05/08 04:51:02;;;;;;;9.57;3.10;;;;;;;16.49;49.09;101436.00;2031410;29;20047;-65
2022/05/08 04:52:06;;;;;;;7.22;3.17;;;;;;;16.62;49.01;101440.66;2038499;29;20420;-65
2022/05/08 04:53:11;;;;;;;7.13;2.85;;;;;;;16.77;48.56;101442.34;2031290;29;20071;-65
2022/05/08 04:54:14;;;;;;;8.70;3.28;;;;;;;16.83;48.14;101440.31;2031656;29;20040;-65
2022/05/08 04:55:18;;;;;;;8.75;2.90;;;;;;;16.86;48.02;101450.59;2038559;29;20106;-66
2022/05/08 04:56:31;;;;;;;10.73;3.13;;;;;;;16.96;47.91;101446.88;2037053;29;20047;-66
2022/05/08 04:57:38;;;;;;;8.20;2.78;;;;;;;17.13;47.74;101449.84;2037843;29;20692;-66
2022/05/08 04:58:41;;;;;;;7.32;2.72;;;;;;;17.32;47.31;101445.09;2037958;29;20103;-66
2022/05/08 04:59:43;;;;;;;5.45;2.60;;;;;;;17.55;46.85;101445.19;2044692;29;20114;-66
2022/05/08 05:00:46;;;;;;;7.90;2.67;;;;;;;17.69;46.18;101445.19;2038938;29;20059;-66
2022/05/08 05:01:49;;;;;;;7.55;2.60;;;;;;;17.78;45.86;101449.63;2030939;29;20528;-67
2022/05/08 05:02:52;;;;;;;8.73;2.72;;;;;;;17.81;45.68;101442.75;2030501;29;20400;-66
2022/05/08 05:03:56;;;;;;;10.02;2.47;;;;;;;17.82;45.06;101442.47;2031489;29;20051;-66
2022/05/08 05:05:00;;;;;;;7.60;3.10;;;;;;;17.98;45.00;101448.38;2038325;29;20762;-66
2022/05/08 05:06:03;;;;;;;8.02;2.70;;;;;;;18.13;45.12;101449.94;2045942;29;20554;-65
2022/05/08 05:07:13;;;;;;;4.93;2.70;;;;;;;18.22;44.72;101442.66;2038402;29;20059;-65
2022/05/08 05:08:21;;;;;;;8.18;2.40;;;;;;;18.39;44.18;101446.63;2038171;29;20060;-66